Time;durP1;ratioP1;P1;durP2;ratioP2;P2;SDS_P1;SDS_P2;PMS_P1;PMS_P2;Temp;Humidity;BMP_temperature;BMP_pressure;BME280_temperature;BME280_humidity;BME280_pressure;Samples;Min_cycle;Max_cycle;Signal;HPM_P1;HPM_P2
2021/12/18 00:00:29;;;;;;;6.28;4.65;;;3.70;95.40;;;;;;5052340;28;20025;-71
2021/12/18 00:02:55;;;;;;;5.82;4.30;;;3.60;95.40;;;;;;5052299;28;20031;-71
2021/12/18 00:05:21;;;;;;;5.60;4.40;;;3.60;95.30;;;;;;5052369;28;20098;-72
2021/12/18 00:07:46;;;;;;;6.38;4.30;;;3.60;95.10;;;;;;5033399;28;20467;-71
2021/12/18 00:10:12;;;;;;;6.60;4.93;;;3.60;95.30;;;;;;5033437;28;20155;-72
2021/12/18 00:12:42;;;;;;;5.35;4.25;;;3.60;95.40;;;;;;5033192;28;20049;-70
2021/12/18 00:15:08;;;;;;;5.03;4.05;;;3.60;95.50;;;;;;5032253;28;20044;-72
2021/12/18 00:17:34;;;;;;;5.38;4.40;;;3.60;95.50;;;;;;5051873;28;20033;-70
2021/12/18 00:19:59;;;;;;;5.30;4.03;;;3.60;95.60;;;;;;5053239;28;20028;-69
2021/12/18 00:22:25;;;;;;;5.35;4.22;;;3.60;95.40;;;;;;5053536;28;20025;-71
2021/12/18 00:24:50;;;;;;;6.10;4.25;;;3.50;95.40;;;;;;5052077;28;20029;-71
2021/12/18 00:27:16;;;;;;;6.03;4.22;;;3.60;95.30;;;;;;5051667;28;20025;-72
2021/12/18 00:29:42;;;;;;;5.60;4.32;;;3.60;95.40;;;;;;5053526;28;20090;-69
2021/12/18 00:32:08;;;;;;;6.68;4.53;;;3.60;95.30;;;;;;5053793;28;20111;-69
2021/12/18 00:34:33;;;;;;;5.70;4.43;;;3.60;95.10;;;;;;5054409;28;20052;-69
2021/12/18 00:36:59;;;;;;;6.82;5.07;;;3.60;95.20;;;;;;5042451;28;20045;-70
2021/12/18 00:39:25;;;;;;;5.72;4.30;;;3.60;95.10;;;;;;5036075;28;20025;-70
2021/12/18 00:42:22;;;;;;;6.60;4.60;;;3.60;95.10;;;;;;5037440;28;20108;-70
2021/12/18 00:44:48;;;;;;;5.60;4.10;;;3.60;95.30;;;;;;5035945;28;20025;-71
2021/12/18 00:47:14;;;;;;;5.50;4.20;;;3.60;95.00;;;;;;5051089;28;20474;-74
2021/12/18 00:49:40;;;;;;;5.68;4.30;;;3.50;94.80;;;;;;5055842;28;20029;-71
2021/12/18 00:52:06;;;;;;;6.15;4.15;;;3.50;94.80;;;;;;5042100;28;20025;-72
2021/12/18 00:54:31;;;;;;;5.65;4.18;;;3.50;95.00;;;;;;5036635;28;20536;-70
2021/12/18 00:56:58;;;;;;;5.70;4.53;;;3.60;95.10;;;;;;5035298;28;20065;-69
2021/12/18 00:59:24;;;;;;;5.03;4.18;;;3.60;95.10;;;;;;5036684;28;20029;-71
2021/12/18 01:01:50;;;;;;;5.32;4.60;;;3.60;94.80;;;;;;5036064;28;20032;-71
2021/12/18 01:04:16;;;;;;;5.95;4.47;;;3.60;94.90;;;;;;5036810;28;20456;-70
2021/12/18 01:06:41;;;;;;;5.82;4.68;;;3.50;95.00;;;;;;5046136;28;20060;-71
2021/12/18 01:09:07;;;;;;;6.25;5.00;;;3.50;95.20;;;;;;5056605;28;20451;-74
2021/12/18 01:11:39;;;;;;;6.78;4.63;;;3.50;95.30;;;;;;5054602;28;20453;-70
2021/12/18 01:25:06;;;;;;;7.38;5.30;;;3.30;96.20;;;;;;5036060;28;20100;-69
2021/12/18 01:27:32;;;;;;;8.23;5.75;;;3.30;96.70;;;;;;5051161;28;20588;-70
2021/12/18 01:29:58;;;;;;;7.65;5.78;;;3.30;96.90;;;;;;5056167;28;20037;-69
2021/12/18 01:32:25;;;;;;;6.45;5.32;;;3.20;96.80;;;;;;5056422;28;20036;-69
2021/12/18 01:34:51;;;;;;;6.63;5.63;;;3.20;97.40;;;;;;5055754;28;20443;-71
2021/12/18 01:37:19;;;;;;;7.00;6.07;;;3.10;98.10;;;;;;5041738;28;20060;-71
2021/12/18 01:39:45;;;;;;;7.47;6.22;;;3.20;98.40;;;;;;5034837;28;20539;-70
2021/12/18 01:45:12;;;;;;;7.10;5.72;;;3.20;98.40;;;;;;5036035;28;20029;-71
2021/12/18 01:53:11;;;;;;;6.40;5.40;;;3.10;99.00;;;;;;5055783;28;20489;-71
2021/12/18 01:55:38;;;;;;;6.80;5.40;;;3.10;99.30;;;;;;5055390;28;20029;-72
2021/12/18 01:58:05;;;;;;;7.00;5.65;;;3.10;99.40;;;;;;5067488;28;20385;-70
2021/12/18 02:00:44;;;;;;;6.43;5.57;;;3.10;99.70;;;;;;5034499;28;20497;-69
2021/12/18 02:03:10;;;;;;;6.50;5.80;;;3.10;99.50;;;;;;5035601;28;20030;-69
2021/12/18 02:05:37;;;;;;;7.07;5.43;;;3.10;99.40;;;;;;5035531;28;20033;-68
2021/12/18 02:08:04;;;;;;;6.95;5.82;;;3.10;99.90;;;;;;5036125;28;20456;-69
2021/12/18 02:10:32;;;;;;;7.45;5.88;;;3.10;99.90;;;;;;5034369;28;20026;-70
2021/12/18 02:13:19;;;;;;;6.03;5.20;;;3.10;99.90;;;;;;5033854;28;20479;-71
2021/12/18 02:21:18;;;;;;;6.97;4.95;;;3.10;99.90;;;;;;5035836;28;20151;-72
2021/12/18 02:23:45;;;;;;;5.75;4.70;;;3.10;99.90;;;;;;5034249;28;20025;-70
2021/12/18 02:26:12;;;;;;;6.20;4.82;;;3.00;99.80;;;;;;5037298;28;20399;-69
2021/12/18 02:28:38;;;;;;;6.93;5.40;;;3.00;99.90;;;;;;5055034;28;20025;-69
2021/12/18 02:31:04;;;;;;;6.22;5.00;;;3.00;99.90;;;;;;5053709;28;20021;-70
2021/12/18 02:33:31;;;;;;;6.05;5.20;;;3.00;99.90;;;;;;5055157;28;20051;-71
2021/12/18 02:35:58;;;;;;;5.97;4.95;;;3.00;99.90;;;;;;5039872;28;20116;-70
2021/12/18 02:41:37;;;;;;;5.70;4.68;;;3.00;99.90;;;;;;5033805;28;20038;-70
2021/12/18 02:44:06;;;;;;;6.22;5.00;;;3.00;99.90;;;;;;5033547;28;20040;-72
2021/12/18 02:46:32;;;;;;;6.80;5.32;;;3.00;99.90;;;;;;5035043;28;20029;-68
2021/12/18 02:49:03;;;;;;;5.75;4.78;;;3.00;99.90;;;;;;5035028;28;20036;-70
2021/12/18 02:51:29;;;;;;;5.80;4.90;;;3.00;99.90;;;;;;5035060;28;20089;-69
2021/12/18 02:53:55;;;;;;;7.20;5.05;;;3.00;99.90;;;;;;5034864;28;20065;-71
2021/12/18 02:56:23;;;;;;;6.20;5.05;;;3.00;99.90;;;;;;5051976;28;20037;-71
2021/12/18 02:58:51;;;;;;;6.32;5.07;;;3.00;99.90;;;;;;5054195;28;20017;-71
2021/12/18 03:01:22;;;;;;;5.97;4.78;;;3.00;99.90;;;;;;5053130;28;20459;-71
2021/12/18 03:03:50;;;;;;;6.40;4.80;;;3.00;99.90;;;;;;5053325;28;20032;-71
2021/12/18 03:06:39;;;;;;;6.50;4.85;;;3.00;99.90;;;;;;5052064;28;20505;-70
2021/12/18 03:25:10;;;;;;;6.05;4.82;;;3.00;99.90;;;;;;5044876;28;20037;-69
2021/12/18 03:27:36;;;;;;;6.85;5.53;;;3.00;99.90;;;;;;5033020;28;20116;-71
2021/12/18 03:30:03;;;;;;;6.63;5.03;;;3.00;99.90;;;;;;5034444;28;20029;-70
2021/12/18 03:32:29;;;;;;;6.43;5.30;;;3.00;99.90;;;;;;5032763;28;20057;-68
2021/12/18 03:34:55;;;;;;;6.72;4.90;;;3.00;99.90;;;;;;5042795;28;20067;-71
2021/12/18 03:37:21;;;;;;;5.93;5.22;;;3.00;99.90;;;;;;5053903;28;20025;-75
2021/12/18 03:39:47;;;;;;;6.28;4.72;;;3.00;99.90;;;;;;5052472;28;20039;-70
2021/12/18 03:42:13;;;;;;;7.00;5.40;;;3.10;99.90;;;;;;5052513;28;20025;-69
2021/12/18 03:44:39;;;;;;;5.38;4.45;;;3.10;99.90;;;;;;5044292;28;20121;-69
2021/12/18 03:47:06;;;;;;;6.68;5.28;;;3.10;99.90;;;;;;5032546;28;20109;-69
2021/12/18 03:49:32;;;;;;;5.90;5.00;;;3.10;99.60;;;;;;5032534;28;20025;-71
2021/12/18 03:51:58;;;;;;;7.82;4.80;;;3.10;99.70;;;;;;5032567;28;20390;-70
2021/12/18 03:54:23;;;;;;;6.95;5.15;;;3.10;99.50;;;;;;5037974;28;20047;-70
2021/12/18 03:56:49;;;;;;;6.53;5.03;;;3.10;99.50;;;;;;5052807;28;20471;-72
2021/12/18 03:59:17;;;;;;;7.07;5.03;;;3.10;99.30;;;;;;5053555;28;20112;-69
2021/12/18 04:01:42;;;;;;;6.63;5.38;;;3.10;99.00;;;;;;5052672;28;20032;-70
2021/12/18 04:04:08;;;;;;;7.25;5.00;;;3.10;99.10;;;;;;5046542;28;20026;-71
2021/12/18 04:06:37;;;;;;;7.57;5.80;;;3.10;99.20;;;;;;5034009;28;20457;-70
2021/12/18 04:09:03;;;;;;;7.50;5.65;;;3.10;98.90;;;;;;5032661;28;20028;-71
2021/12/18 04:11:28;;;;;;;7.20;5.70;;;3.10;98.80;;;;;;5034615;28;20041;-70
2021/12/18 04:13:55;;;;;;;6.43;4.78;;;3.10;98.80;;;;;;5040735;28;20044;-71
2021/12/18 04:16:21;;;;;;;9.93;5.32;;;3.10;98.70;;;;;;5057340;28;20493;-70
2021/12/18 04:18:47;;;;;;;6.65;5.18;;;3.10;98.60;;;;;;5056383;28;20120;-71
2021/12/18 04:21:12;;;;;;;6.80;5.03;;;3.10;98.50;;;;;;5057463;28;20451;-69
2021/12/18 04:23:38;;;;;;;7.05;4.97;;;3.10;98.40;;;;;;5053331;28;20075;-69
2021/12/18 04:26:04;;;;;;;6.18;5.05;;;3.10;98.50;;;;;;5037583;28;20422;-69
2021/12/18 04:28:29;;;;;;;6.65;4.90;;;3.10;98.40;;;;;;5051104;28;20039;-71
2021/12/18 04:30:55;;;;;;;7.95;5.70;;;3.10;98.40;;;;;;5057213;28;20051;-70
2021/12/18 04:33:21;;;;;;;6.47;4.82;;;3.10;98.20;;;;;;5055939;28;20020;-70
2021/12/18 04:35:47;;;;;;;5.68;4.75;;;3.10;98.10;;;;;;5035547;28;20033;-72
2021/12/18 04:38:13;;;;;;;5.78;4.38;;;3.10;98.20;;;;;;5036606;28;20022;-71
2021/12/18 04:40:40;;;;;;;6.22;4.68;;;3.10;97.90;;;;;;5035940;28;20021;-71
2021/12/18 04:43:06;;;;;;;6.43;4.70;;;3.10;97.70;;;;;;5035807;28;20112;-70
2021/12/18 04:45:32;;;;;;;6.03;4.60;;;3.10;97.50;;;;;;5055709;28;20040;-75
2021/12/18 04:47:58;;;;;;;6.35;4.63;;;3.00;97.40;;;;;;5056897;28;20021;-70
2021/12/18 04:50:25;;;;;;;5.57;4.30;;;3.00;97.50;;;;;;5056851;28;20025;-74
2021/12/18 04:52:51;;;;;;;6.15;4.70;;;3.00;97.70;;;;;;5055574;28;20049;-71
2021/12/18 04:55:17;;;;;;;5.95;4.68;;;3.00;97.70;;;;;;5038687;28;20041;-70
2021/12/18 04:57:43;;;;;;;5.80;4.00;;;3.00;97.70;;;;;;5035770;28;20124;-69
2021/12/18 05:00:14;;;;;;;7.43;4.65;;;3.00;97.50;;;;;;5037144;28;20475;-68
2021/12/18 05:02:43;;;;;;;6.97;4.88;;;3.00;97.70;;;;;;5035453;28;20054;-71
2021/12/18 05:05:10;;;;;;;5.47;4.25;;;2.90;98.10;;;;;;5049877;28;20060;-73
2021/12/18 05:07:37;;;;;;;5.82;4.68;;;3.00;98.40;;;;;;5056293;28;20029;-70
2021/12/18 05:10:05;;;;;;;6.05;4.43;;;3.00;98.00;;;;;;5055181;28;20418;-73
2021/12/18 05:12:31;;;;;;;5.38;3.90;;;2.90;97.90;;;;;;5056225;28;20048;-69
2021/12/18 05:14:57;;;;;;;4.60;3.67;;;2.90;98.00;;;;;;5041526;28;20117;-69
2021/12/18 05:17:22;;;;;;;4.97;3.53;;;2.90;97.90;;;;;;5035661;28;20053;-69
2021/12/18 05:19:48;;;;;;;5.20;4.20;;;2.90;98.30;;;;;;5036523;28;20041;-69
2021/12/18 05:22:14;;;;;;;5.38;3.80;;;2.90;98.40;;;;;;5036522;28;20116;-69
2021/12/18 05:24:39;;;;;;;5.53;4.03;;;2.90;98.50;;;;;;5046785;28;20099;-72
2021/12/18 05:27:05;;;;;;;5.57;3.88;;;2.90;98.40;;;;;;5056196;28;20132;-70
2021/12/18 05:29:31;;;;;;;5.22;4.25;;;2.90;98.50;;;;;;5055010;28;20491;-71
2021/12/18 05:31:57;;;;;;;4.90;3.90;;;2.90;98.40;;;;;;5056172;28;20123;-71
2021/12/18 05:34:25;;;;;;;4.85;3.75;;;2.80;98.60;;;;;;5047698;28;20414;-69
2021/12/18 05:39:26;;;;;;;5.35;4.18;;;2.80;99.10;;;;;;5036235;28;20401;-71
2021/12/18 05:41:52;;;;;;;5.07;3.80;;;2.80;98.90;;;;;;5034955;28;20049;-72
2021/12/18 05:44:21;;;;;;;4.22;3.70;;;2.80;99.20;;;;;;5043565;28;20108;-68
2021/12/18 05:46:47;;;;;;;5.60;4.10;;;2.80;99.20;;;;;;5054801;28;20025;-70
2021/12/18 05:49:13;;;;;;;4.90;3.88;;;2.80;99.00;;;;;;5056943;28;20075;-70
2021/12/18 05:51:40;;;;;;;5.40;3.80;;;2.80;98.80;;;;;;5055422;28;20483;-70
2021/12/18 05:54:06;;;;;;;7.47;5.00;;;2.80;98.60;;;;;;5050503;28;20042;-73
2021/12/18 05:56:31;;;;;;;5.80;3.67;;;2.80;98.30;;;;;;5035755;28;20371;-70
2021/12/18 05:58:58;;;;;;;4.35;3.35;;;2.90;98.00;;;;;;5034281;28;20099;-69
2021/12/18 06:01:25;;;;;;;4.25;2.78;;;2.90;97.60;;;;;;5035569;28;20108;-70
2021/12/18 06:03:51;;;;;;;4.65;3.65;;;3.00;97.50;;;;;;5037430;28;20443;-74
2021/12/18 06:06:17;;;;;;;4.15;3.20;;;2.90;97.00;;;;;;5055683;28;20317;-71
2021/12/18 06:08:43;;;;;;;4.18;3.00;;;2.90;96.60;;;;;;5055544;28;20079;-72
2021/12/18 06:11:15;;;;;;;3.88;3.03;;;2.90;96.20;;;;;;5055554;28;20041;-72
2021/12/18 06:13:42;;;;;;;4.07;3.05;;;2.90;96.20;;;;;;5053523;28;20025;-69
2021/12/18 06:16:08;;;;;;;3.75;2.90;;;2.90;96.20;;;;;;5035330;28;20029;-71
2021/12/18 06:18:35;;;;;;;3.97;3.10;;;2.90;95.90;;;;;;5035125;28;20029;-74
2021/12/18 06:21:02;;;;;;;3.95;2.90;;;2.80;95.90;;;;;;5035282;28;20022;-72
2021/12/18 06:23:28;;;;;;;4.60;3.22;;;2.80;95.90;;;;;;5034007;28;20034;-71
2021/12/18 06:25:54;;;;;;;4.00;3.10;;;2.80;96.00;;;;;;5034240;28;20502;-71
2021/12/18 06:28:20;;;;;;;7.93;6.07;;;2.80;96.10;;;;;;5035101;28;20048;-69
2021/12/18 06:30:45;;;;;;;4.38;3.00;;;2.80;96.00;;;;;;5041302;28;20482;-71
2021/12/18 06:33:11;;;;;;;5.35;3.58;;;2.80;96.30;;;;;;5054739;28;20029;-73
2021/12/18 06:35:36;;;;;;;4.50;3.30;;;2.80;96.50;;;;;;5054284;28;20029;-69
2021/12/18 06:38:02;;;;;;;5.03;3.55;;;2.70;96.60;;;;;;5053477;28;20040;-72
2021/12/18 06:40:28;;;;;;;4.85;3.20;;;2.70;97.00;;;;;;5051866;28;20021;-70
2021/12/18 06:42:54;;;;;;;4.22;3.30;;;2.70;97.30;;;;;;5033484;28;20471;-72
2021/12/18 06:45:19;;;;;;;4.45;3.70;;;2.70;97.70;;;;;;5035060;28;20028;-72
2021/12/18 06:47:45;;;;;;;4.85;3.35;;;2.70;97.50;;;;;;5033699;28;20025;-72
2021/12/18 06:50:11;;;;;;;4.75;3.83;;;2.60;97.90;;;;;;5034753;28;20106;-74
2021/12/18 06:52:37;;;;;;;4.85;3.47;;;2.60;97.90;;;;;;5034640;28;20021;-73
2021/12/18 06:55:04;;;;;;;8.10;5.35;;;2.60;98.10;;;;;;5034565;28;20127;-72
2021/12/18 06:57:30;;;;;;;5.38;3.92;;;2.60;98.50;;;;;;5033378;28;20482;-70
2021/12/18 06:59:55;;;;;;;5.03;3.90;;;2.70;98.50;;;;;;5034552;28;20029;-75
2021/12/18 07:02:21;;;;;;;6.80;4.30;;;2.70;98.40;;;;;;5033582;28;20526;-73
2021/12/18 07:04:48;;;;;;;5.38;3.45;;;2.80;98.20;;;;;;5034998;28;20056;-69
2021/12/18 07:07:14;;;;;;;4.65;3.50;;;2.80;97.80;;;;;;5034320;28;20029;-69
2021/12/18 07:09:40;;;;;;;6.65;4.65;;;2.90;97.50;;;;;;5032962;28;20547;-71
2021/12/18 07:12:06;;;;;;;5.05;3.85;;;2.90;97.20;;;;;;5048646;28;20486;-69
2021/12/18 07:14:31;;;;;;;5.53;3.92;;;2.90;97.00;;;;;;5053847;28;20463;-70
2021/12/18 07:16:57;;;;;;;5.80;4.18;;;3.00;96.90;;;;;;5053824;28;20087;-73
2021/12/18 07:19:23;;;;;;;5.18;3.80;;;3.00;96.70;;;;;;5054234;28;20036;-72
2021/12/18 07:21:48;;;;;;;4.82;3.55;;;3.10;96.30;;;;;;5041262;28;20391;-71
2021/12/18 07:24:14;;;;;;;5.28;3.58;;;3.10;96.30;;;;;;5034175;28;20076;-71
2021/12/18 07:26:40;;;;;;;4.57;3.67;;;3.20;95.70;;;;;;5034188;28;20036;-74
2021/12/18 07:29:05;;;;;;;4.07;3.15;;;3.20;95.10;;;;;;5033998;28;20034;-70
2021/12/18 07:31:31;;;;;;;3.65;2.95;;;3.20;94.50;;;;;;5042719;28;20025;-71
2021/12/18 07:33:57;;;;;;;4.32;3.00;;;3.20;93.90;;;;;;5050697;28;20025;-75
2021/12/18 07:36:22;;;;;;;4.93;3.50;;;3.20;93.80;;;;;;5041601;28;20045;-75
2021/12/18 07:38:48;;;;;;;4.45;3.67;;;3.20;93.50;;;;;;5040999;28;20463;-72
2021/12/18 07:41:14;;;;;;;4.60;3.25;;;3.30;93.40;;;;;;5050497;28;20466;-72
2021/12/18 07:43:40;;;;;;;4.75;3.42;;;3.30;93.30;;;;;;5069380;28;20056;-70
2021/12/18 07:46:05;;;;;;;4.28;3.10;;;3.40;93.20;;;;;;5060815;28;20025;-74
2021/12/18 07:48:31;;;;;;;4.50;3.25;;;3.40;92.80;;;;;;5066743;28;20021;-72
2021/12/18 07:50:57;;;;;;;4.78;3.58;;;3.40;92.50;;;;;;5042338;28;20552;-76
2021/12/18 07:53:24;;;;;;;5.38;3.70;;;3.40;92.40;;;;;;5035358;28;20029;-73
2021/12/18 07:56:03;;;;;;;5.65;3.40;;;3.40;92.10;;;;;;5052059;28;20489;-74
2021/12/18 07:58:30;;;;;;;4.80;3.42;;;3.40;92.10;;;;;;5055759;28;20021;-76
2021/12/18 08:00:56;;;;;;;4.60;3.42;;;3.40;92.20;;;;;;5054414;28;20029;-76
2021/12/18 08:03:22;;;;;;;4.15;3.40;;;3.50;91.90;;;;;;5040097;28;20096;-76
2021/12/18 08:05:48;;;;;;;5.53;3.60;;;3.50;91.90;;;;;;5053030;28;20033;-78
2021/12/18 08:08:14;;;;;;;6.80;3.90;;;3.60;91.70;;;;;;5049657;28;20025;-81
2021/12/18 08:10:40;;;;;;;5.90;3.67;;;3.60;91.30;;;;;;5055885;28;20025;-81
2021/12/18 08:13:06;;;;;;;4.15;3.10;;;3.60;91.30;;;;;;5055626;28;20566;-79
2021/12/18 08:15:32;;;;;;;4.63;3.30;;;3.60;91.00;;;;;;5044897;28;20048;-79
2021/12/18 08:17:58;;;;;;;4.65;2.80;;;3.60;90.70;;;;;;5032334;28;20384;-79
2021/12/18 08:20:26;;;;;;;4.15;2.80;;;3.60;90.70;;;;;;5033549;28;20460;-80
2021/12/18 08:22:52;;;;;;;4.10;3.05;;;3.70;90.70;;;;;;5035825;28;20031;-80
2021/12/18 08:25:18;;;;;;;3.45;2.50;;;3.70;90.20;;;;;;5039333;28;20026;-79
2021/12/18 08:27:44;;;;;;;3.22;2.83;;;3.70;89.80;;;;;;5041239;28;20032;-79
2021/12/18 08:30:10;;;;;;;4.20;2.85;;;3.70;90.00;;;;;;5032004;28;20117;-80
2021/12/18 08:32:39;;;;;;;3.75;2.88;;;3.70;89.50;;;;;;5046137;28;20480;-74
2021/12/18 08:35:05;;;;;;;4.20;3.22;;;3.70;89.20;;;;;;5031554;28;20026;-79
2021/12/18 08:37:31;;;;;;;4.13;3.08;;;3.60;89.20;;;;;;5043334;28;20029;-76
2021/12/18 08:39:56;;;;;;;3.17;2.65;;;3.60;89.20;;;;;;5039357;28;20540;-75
2021/12/18 08:42:23;;;;;;;3.70;2.80;;;3.60;89.40;;;;;;5038304;28;20489;-80
2021/12/18 08:44:48;;;;;;;5.25;3.58;;;3.60;89.00;;;;;;5032096;28;20519;-75
2021/12/18 08:47:16;;;;;;;4.43;3.22;;;3.50;88.90;;;;;;5050462;28;20100;-74
2021/12/18 08:49:42;;;;;;;3.83;2.92;;;3.50;89.50;;;;;;5055583;28;20021;-77
2021/12/18 08:52:07;;;;;;;3.35;2.83;;;3.50;89.50;;;;;;5052202;28;20106;-75
2021/12/18 08:54:33;;;;;;;3.28;2.67;;;3.50;89.00;;;;;;5041550;28;20071;-70
2021/12/18 08:56:59;;;;;;;3.85;2.50;;;3.50;88.90;;;;;;5043221;28;20087;-72
2021/12/18 08:59:25;;;;;;;3.67;2.63;;;3.50;88.70;;;;;;5041698;28;20035;-75
2021/12/18 09:01:51;;;;;;;3.88;2.63;;;3.50;88.70;;;;;;5045203;28;20466;-71
2021/12/18 09:04:16;;;;;;;3.60;2.90;;;3.50;88.60;;;;;;5039383;28;20112;-72
2021/12/18 09:06:42;;;;;;;4.20;2.72;;;3.50;88.30;;;;;;5042396;28;20431;-73
2021/12/18 09:09:08;;;;;;;4.13;2.85;;;3.50;87.90;;;;;;5053545;28;20482;-75
2021/12/18 09:11:34;;;;;;;3.45;2.67;;;3.40;87.90;;;;;;5040367;28;20058;-74
2021/12/18 09:14:02;;;;;;;3.92;2.72;;;3.40;87.90;;;;;;5043689;28;20033;-71
2021/12/18 09:16:28;;;;;;;4.35;2.85;;;3.40;88.10;;;;;;5047998;28;20033;-75
2021/12/18 09:18:54;;;;;;;3.67;2.60;;;3.40;87.80;;;;;;5041934;28;20040;-72
2021/12/18 09:21:21;;;;;;;4.20;2.92;;;3.40;87.30;;;;;;5042058;28;20026;-72
2021/12/18 09:23:47;;;;;;;3.85;2.70;;;3.40;87.30;;;;;;5040330;28;20091;-74
2021/12/18 09:26:12;;;;;;;3.55;2.60;;;3.40;87.30;;;;;;5043681;28;20033;-74
2021/12/18 09:28:38;;;;;;;4.40;3.00;;;3.40;87.30;;;;;;5050461;28;20486;-75
2021/12/18 09:31:04;;;;;;;3.47;2.42;;;3.40;87.10;;;;;;5040279;28;20033;-74
2021/12/18 09:33:30;;;;;;;2.97;2.42;;;3.30;87.10;;;;;;5036675;28;20029;-73
2021/12/18 09:35:55;;;;;;;2.80;2.20;;;3.30;86.90;;;;;;5040143;28;20044;-75
2021/12/18 09:38:22;;;;;;;3.45;2.35;;;3.30;86.90;;;;;;5038736;28;20483;-72
2021/12/18 09:40:47;;;;;;;3.03;2.22;;;3.30;86.90;;;;;;5037973;28;20025;-74
2021/12/18 09:43:13;;;;;;;2.75;2.13;;;3.30;86.80;;;;;;5044397;28;20021;-74
2021/12/18 09:45:39;;;;;;;2.60;2.20;;;3.30;86.50;;;;;;5040635;28;20029;-73
2021/12/18 09:48:06;;;;;;;2.90;2.20;;;3.30;86.30;;;;;;5055882;28;20038;-75
2021/12/18 09:50:35;;;;;;;3.30;2.40;;;3.30;86.10;;;;;;5042487;28;20025;-75
2021/12/18 09:53:01;;;;;;;3.70;2.38;;;3.30;86.00;;;;;;5040912;28;20033;-75
2021/12/18 09:55:26;;;;;;;4.07;2.67;;;3.30;86.30;;;;;;5047065;28;20372;-76
2021/12/18 09:57:52;;;;;;;3.85;2.88;;;3.30;86.40;;;;;;5037268;28;20033;-73
2021/12/18 10:00:24;;;;;;;3.25;2.55;;;3.30;86.20;;;;;;5039843;28;20033;-71
2021/12/18 10:02:50;;;;;;;4.45;2.60;;;3.30;86.20;;;;;;5064215;28;20418;-70
2021/12/18 10:05:31;;;;;;;4.43;2.97;;;3.30;86.30;;;;;;5051510;28;20029;-78
2021/12/18 10:08:09;;;;;;;4.43;3.38;;;3.20;86.70;;;;;;5034446;28;20035;-73
2021/12/18 10:10:36;;;;;;;3.88;2.78;;;3.20;86.70;;;;;;5033567;28;20467;-75
2021/12/18 10:13:08;;;;;;;3.65;2.75;;;3.20;86.70;;;;;;5033941;28;20578;-70
2021/12/18 10:15:35;;;;;;;3.00;2.42;;;3.20;86.40;;;;;;5045012;28;20112;-74
2021/12/18 10:18:07;;;;;;;4.07;2.72;;;3.10;86.50;;;;;;5037985;28;20388;-72
2021/12/18 10:20:32;;;;;;;5.00;3.47;;;3.10;86.90;;;;;;5040356;28;20041;-73
2021/12/18 10:22:59;;;;;;;6.22;4.35;;;3.10;86.30;;;;;;5051975;28;20024;-74
2021/12/18 10:25:26;;;;;;;4.65;3.22;;;3.10;86.60;;;;;;5047579;28;20037;-71
2021/12/18 10:28:09;;;;;;;3.83;2.50;;;3.10;86.50;;;;;;5049199;28;20030;-73
2021/12/18 10:30:42;;;;;;;2.95;2.05;;;3.10;85.60;;;;;;5044670;28;20041;-74
2021/12/18 10:33:11;;;;;;;3.35;2.03;;;3.00;84.70;;;;;;5040168;28;20061;-75
2021/12/18 10:35:53;;;;;;;4.90;3.13;;;3.00;84.10;;;;;;5034739;28;20037;-73
2021/12/18 10:38:48;;;;;;;4.05;2.97;;;3.00;84.30;;;;;;5034689;28;20021;-74
2021/12/18 10:41:27;;;;;;;3.45;2.78;;;2.90;84.20;;;;;;5057547;28;20489;-76
2021/12/18 10:43:58;;;;;;;4.95;3.38;;;2.90;84.40;;;;;;5052712;28;20040;-74
2021/12/18 10:46:24;;;;;;;3.58;2.42;;;2.90;84.30;;;;;;5037652;28;20021;-77
2021/12/18 10:49:14;;;;;;;4.22;2.80;;;3.00;83.90;;;;;;5033478;28;20036;-72
2021/12/18 10:51:41;;;;;;;3.90;2.60;;;3.00;83.10;;;;;;5026791;28;20021;-70
2021/12/18 10:54:22;;;;;;;3.08;2.40;;;3.00;83.10;;;;;;5049017;28;20041;-72
2021/12/18 10:56:53;;;;;;;4.20;3.10;;;3.00;82.90;;;;;;5042055;28;20079;-73
2021/12/18 10:59:31;;;;;;;4.03;2.95;;;3.00;82.70;;;;;;5042307;28;20028;-73
2021/12/18 11:02:00;;;;;;;5.05;3.17;;;3.00;82.10;;;;;;5038320;28;20036;-76
2021/12/18 11:04:28;;;;;;;4.95;2.97;;;3.00;82.10;;;;;;5064037;28;20032;-71
2021/12/18 11:06:55;;;;;;;4.70;2.90;;;3.00;81.80;;;;;;5033794;28;20030;-74
2021/12/18 11:09:31;;;;;;;4.30;2.83;;;3.00;82.30;;;;;;5053232;28;20032;-73
2021/12/18 11:14:45;;;;;;;3.57;2.53;;;3.00;81.10;;;;;;5052901;28;20738;-74
2021/12/18 11:17:13;;;;;;;3.97;2.92;;;2.90;81.00;;;;;;5057391;28;20314;-75
2021/12/18 11:19:40;;;;;;;4.00;2.88;;;2.90;80.80;;;;;;5048223;28;20029;-75
2021/12/18 11:22:16;;;;;;;6.47;3.42;;;2.90;80.70;;;;;;5032636;28;20025;-74
2021/12/18 11:25:00;;;;;;;5.78;3.15;;;2.90;80.50;;;;;;5036150;28;20120;-74
2021/12/18 11:27:28;;;;;;;3.55;2.58;;;2.90;80.70;;;;;;5034020;28;20029;-75
2021/12/18 11:29:57;;;;;;;4.18;2.63;;;2.80;80.50;;;;;;5034192;28;20048;-74
2021/12/18 11:32:35;;;;;;;4.30;2.90;;;2.70;80.50;;;;;;5033775;28;20032;-74
2021/12/18 11:35:05;;;;;;;5.65;3.83;;;2.80;81.00;;;;;;5032739;28;20037;-75
2021/12/18 11:37:42;;;;;;;4.38;2.95;;;2.80;81.00;;;;;;5033814;28;20383;-74
2021/12/18 11:40:11;;;;;;;4.75;2.70;;;2.80;80.90;;;;;;5040248;28;20118;-75
2021/12/18 11:42:37;;;;;;;4.22;3.03;;;2.80;81.00;;;;;;5051518;28;20397;-74
2021/12/18 11:45:07;;;;;;;5.75;3.10;;;2.80;81.00;;;;;;5032245;28;20124;-73
2021/12/18 11:47:38;;;;;;;4.88;3.50;;;2.70;80.80;;;;;;5043976;28;20029;-74
2021/12/18 11:50:19;;;;;;;5.63;3.20;;;2.70;80.90;;;;;;5032085;28;20116;-72
2021/12/18 11:53:06;;;;;;;4.85;2.92;;;2.60;81.00;;;;;;5033742;28;20136;-74
2021/12/18 11:55:50;;;;;;;4.35;3.13;;;2.60;81.30;;;;;;5031784;28;20052;-72
2021/12/18 11:58:22;;;;;;;4.07;2.50;;;2.60;81.40;;;;;;5033352;28;20033;-74
2021/12/18 12:00:59;;;;;;;4.60;2.80;;;2.50;81.60;;;;;;5036949;28;21288;-74
2021/12/18 12:03:30;;;;;;;3.47;2.10;;;2.50;81.80;;;;;;5047081;28;20471;-74
2021/12/18 12:05:58;;;;;;;2.97;2.25;;;2.40;81.60;;;;;;5051675;28;20528;-75
2021/12/18 12:08:34;;;;;;;3.75;2.20;;;2.40;81.70;;;;;;5046256;28;20040;-73
2021/12/18 12:11:15;;;;;;;3.88;2.33;;;2.40;81.60;;;;;;5057022;28;20147;-74
2021/12/18 12:13:51;;;;;;;3.45;2.30;;;2.40;81.70;;;;;;5056503;28;20108;-74
2021/12/18 12:16:17;;;;;;;3.63;2.35;;;2.40;81.70;;;;;;5034131;28;20414;-75
2021/12/18 12:19:02;;;;;;;3.50;2.47;;;2.40;81.40;;;;;;5033017;28;20034;-79
2021/12/18 12:21:46;;;;;;;3.23;2.53;;;2.50;81.20;;;;;;5039240;28;20466;-73
2021/12/18 12:24:15;;;;;;;4.32;2.70;;;2.50;80.60;;;;;;5044813;28;20039;-72
2021/12/18 12:26:41;;;;;;;4.45;2.65;;;2.50;80.50;;;;;;5060462;28;20029;-70
2021/12/18 12:29:08;;;;;;;3.65;2.25;;;2.50;80.10;;;;;;5048972;28;20032;-70
2021/12/18 12:31:35;;;;;;;3.08;2.17;;;2.50;79.40;;;;;;5051350;28;20459;-70
2021/12/18 12:34:23;;;;;;;2.75;2.30;;;2.50;78.90;;;;;;5050276;28;20103;-71
2021/12/18 12:36:57;;;;;;;2.92;2.00;;;2.40;78.40;;;;;;5040689;28;20040;-69
2021/12/18 12:39:24;;;;;;;3.95;2.50;;;2.40;78.60;;;;;;5054084;28;20021;-71
2021/12/18 12:41:52;;;;;;;3.33;2.40;;;2.40;78.60;;;;;;5051731;28;20155;-74
2021/12/18 12:44:28;;;;;;;3.50;2.30;;;2.40;78.60;;;;;;5039317;28;20029;-71
2021/12/18 12:47:13;;;;;;;2.75;2.17;;;2.40;78.30;;;;;;5054147;28;20025;-74
2021/12/18 12:49:39;;;;;;;3.45;2.42;;;2.40;77.90;;;;;;5055755;28;20151;-71
2021/12/18 12:52:10;;;;;;;4.43;3.25;;;2.40;78.00;;;;;;5055793;28;20450;-71
2021/12/18 12:54:45;;;;;;;4.45;2.58;;;2.30;77.90;;;;;;5055753;28;20111;-70
2021/12/18 12:57:23;;;;;;;5.03;3.13;;;2.30;77.80;;;;;;5054493;28;20040;-72
2021/12/18 12:59:53;;;;;;;4.00;2.83;;;2.40;77.60;;;;;;5036464;28;20037;-70
2021/12/18 13:02:20;;;;;;;4.15;2.65;;;2.30;77.50;;;;;;5037234;28;20083;-71
2021/12/18 13:04:47;;;;;;;4.15;2.55;;;2.40;77.50;;;;;;5055403;28;20025;-72
2021/12/18 13:07:13;;;;;;;6.60;2.72;;;2.40;77.50;;;;;;5051068;28;20037;-70
2021/12/18 13:09:46;;;;;;;3.13;2.25;;;2.40;77.10;;;;;;5050060;28;20032;-72
2021/12/18 13:12:12;;;;;;;3.28;2.28;;;2.30;76.50;;;;;;5056560;28;20367;-71
2021/12/18 13:14:40;;;;;;;3.20;2.25;;;2.30;76.50;;;;;;5056295;28;20032;-71
2021/12/18 13:17:26;;;;;;;3.47;2.10;;;2.30;76.50;;;;;;5055654;28;20032;-70
2021/12/18 13:20:05;;;;;;;2.88;2.15;;;2.30;76.30;;;;;;5055188;28;20116;-72
2021/12/18 13:22:33;;;;;;;2.17;1.80;;;2.20;76.10;;;;;;5049108;28;20041;-70
2021/12/18 13:25:07;;;;;;;3.75;2.30;;;2.20;76.00;;;;;;5045705;28;20079;-71
2021/12/18 13:27:34;;;;;;;4.18;2.40;;;2.20;76.20;;;;;;5054288;28;20031;-69
2021/12/18 13:30:17;;;;;;;5.25;2.90;;;2.20;76.50;;;;;;5046445;28;20119;-71
2021/12/18 13:33:05;;;;;;;7.07;3.58;;;2.20;76.70;;;;;;5036621;28;20032;-71
2021/12/18 13:35:34;;;;;;;7.03;3.45;;;2.20;77.20;;;;;;5036401;28;20392;-71
2021/12/18 13:38:03;;;;;;;5.35;3.53;;;2.20;77.60;;;;;;5035034;28;20348;-71
2021/12/18 13:40:45;;;;;;;5.63;3.85;;;2.10;78.00;;;;;;5036323;28;20502;-70
2021/12/18 13:43:12;;;;;;;4.40;3.05;;;2.20;78.60;;;;;;5046518;28;20040;-72
2021/12/18 13:45:54;;;;;;;5.90;4.28;;;2.20;78.80;;;;;;5056087;28;20037;-71
2021/12/18 13:48:26;;;;;;;3.63;2.53;;;2.10;79.20;;;;;;5052853;28;20033;-71
2021/12/18 13:51:09;;;;;;;4.55;3.30;;;2.10;79.60;;;;;;5054231;28;20029;-71
2021/12/18 13:53:50;;;;;;;5.50;3.75;;;2.10;80.10;;;;;;5054659;28;20025;-69